Van Nuys Regional Airport Weather

KVNY 272251Z 34003KT 10SM SCT045 BKN100 13/08 A2981 RMK AO2 PRESFR SLP092 T01280078

KAPV 191256Z AUTO 05004KT 10SM FEW075 SCT090 BKN110 18/18 A2996 RMK AO2 SLP144 T01830178 $

KAVX 272251Z AUTO 25006KT M1/4SM FG VV002 10/10 A2981 RMK AO2 RAB2158E22 SLP098 P0000 T01000100 TSNO

KBFL 272254Z 32004KT 10SM SCT050 BKN065 13/06 A2990 RMK AO2 SLP123 T01280061

KBUR 272253Z 33005KT 10SM SCT028 13/06 A2981 RMK AO2 SLP086 T01330061

KCMA 272255Z 28007KT 10SM OVC044 14/09 A2983 RMK AO2 SLP110 T01440094

KCNO 272307Z 00000KT 2SM -RA BR FEW005 BKN010 OVC030 12/11 A2983 RMK AO2 P0001 T01170106

KEMT 272145Z 19004KT 10SM SCT040 BKN070 M/M A2985

KFUL 272303Z 00000KT 5SM BR BKN015 OVC055 14/12 A2981 RMK AO2 RAE03 P0000 T01390122

KHHR 272253Z 23003KT 10SM OVC080 14/08 A2982 RMK AO2 SLP098 T01390078

KL35 272315Z AUTO 26005KT 2SM RA OVC008 01/00 A2979 RMK AO2

KLAX 272253Z 22005KT 10SM FEW012 FEW045 BKN080 OVC180 13/08 A2982 RMK AO2 SLP098 T01330083

KLGB 272253Z 00000KT 9SM FEW013 OVC070 14/11 A2982 RMK AO2 RAE20B40E53 SLP098 P0000 T01390106

KONT 272253Z 22004KT 1 1/2SM -RA BR OVC005 10/10 A2982 RMK AO2 SLP102 CIG 003V007 P0002 T01000100

KOXR 272251Z AUTO 29007KT 10SM OVC042 14/09 A2983 RMK AO2 SLP103 T01440089

KPMD 272324Z AUTO 28011KT 10SM SCT020 BKN027 09/06 A2980 RMK AO2 T00940056

KPOC 272247Z 24005KT 4SM -RA BKN008 OVC015 12/11 A2985

KRAL 272300Z 00000KT 2SM -RA BR FEW003 BKN025 OVC060 11/11 A2982 RMK AO2 P0000 T01060106

KSMO 272251Z 24004KT 10SM FEW040 SCT060 SCT080 13/08 A2982 RMK AO2 SLP097 T01330078 $

KSNA 272253Z 00000KT 2SM R20R/5000VP6000FT +RA BR OVC007 13/12 A2983 RMK AO2 TWR VIS 2 1/2 SLP101 P0007 T01280122

KTOA 272255Z 29007KT 10SM SCT030 BKN050 OVC065 12/08 A2982

KTRM 272252Z AUTO 00000KT 7SM -RA OVC021 12/10 A2983 RMK AO2 SLP101 P0002 T01220100

KWHP 272250Z 00000KT 10SM BKN028 OVC180 12/06 A2985

KWJF 272256Z 28015KT 10SM OVC026 09/03 A2981 RMK AO2 SLP101 T00890028

How to read METARs

 

KVNY